createdAt,value
2018-09-04T00:02:19.095Z,3.62
2018-09-04T00:04:47.447Z,4.08
2018-09-04T00:07:19.313Z,4.25
2018-09-04T00:09:48.536Z,3.83
2018-09-04T00:12:17.045Z,3.90
2018-09-04T00:14:45.419Z,3.42
2018-09-04T00:17:14.812Z,4.40
2018-09-04T00:19:43.234Z,4.35
2018-09-04T00:22:11.685Z,3.90
2018-09-04T00:24:40.101Z,4.08
2018-09-04T00:27:08.453Z,3.80
2018-09-04T00:29:36.797Z,4.12
2018-09-04T00:32:05.128Z,3.83
2018-09-04T00:34:33.528Z,3.98
2018-09-04T00:37:01.808Z,3.83
2018-09-04T00:39:30.166Z,3.83
2018-09-04T00:41:58.730Z,4.20
2018-09-04T00:44:27.146Z,4.20
2018-09-04T00:46:55.500Z,3.98
2018-09-04T00:49:23.786Z,4.10
2018-09-04T00:51:52.112Z,3.62
2018-09-04T00:54:20.472Z,3.83
2018-09-04T00:56:48.796Z,4.00
2018-09-04T00:59:17.218Z,4.22
2018-09-04T01:01:45.587Z,3.83
2018-09-04T01:04:14.652Z,3.98
2018-09-04T01:06:42.968Z,3.87
2018-09-04T01:09:13.833Z,3.72
2018-09-04T01:11:42.193Z,4.03
2018-09-04T01:14:10.514Z,3.40
2018-09-04T01:16:39.057Z,3.83
2018-09-04T01:19:07.571Z,3.42
2018-09-04T01:21:36.342Z,3.58
2018-09-04T01:24:04.780Z,3.55
2018-09-04T01:26:33.260Z,4.12
2018-09-04T01:29:01.653Z,3.62
2018-09-04T01:31:29.987Z,3.00
2018-09-04T01:33:59.039Z,3.55
2018-09-04T01:36:27.500Z,3.50
2018-09-04T01:38:55.898Z,3.50
2018-09-04T01:41:24.261Z,3.40
2018-09-04T01:43:52.586Z,3.60
2018-09-04T01:46:20.917Z,4.05
2018-09-04T01:48:50.645Z,3.27
2018-09-04T01:51:19.233Z,3.30
2018-09-04T01:53:47.731Z,3.62
2018-09-04T01:56:16.047Z,3.98
2018-09-04T01:58:44.371Z,3.62
2018-09-04T02:01:12.723Z,3.83
2018-09-04T02:03:41.111Z,3.52
2018-09-04T02:06:09.555Z,3.72
2018-09-04T02:08:37.908Z,3.33
2018-09-04T02:11:06.313Z,3.25
2018-09-04T02:13:34.815Z,3.40
2018-09-04T02:16:03.145Z,3.98
2018-09-04T02:18:31.511Z,4.12
2018-09-04T02:20:59.856Z,3.27
2018-09-04T02:23:28.189Z,3.50
2018-09-04T02:25:56.525Z,3.35
2018-09-04T02:28:24.856Z,3.20
2018-09-04T02:30:53.157Z,3.22
2018-09-04T02:33:21.476Z,3.62
2018-09-04T02:35:49.762Z,3.70
2018-09-04T02:38:18.221Z,3.87
2018-09-04T02:40:46.562Z,3.77
2018-09-04T02:43:14.898Z,4.22
2018-09-04T02:45:43.228Z,3.40
2018-09-04T02:48:11.576Z,3.15
2018-09-04T02:50:39.891Z,4.25
2018-09-04T02:53:08.282Z,3.55
2018-09-04T02:55:36.682Z,3.45
2018-09-04T02:58:05.453Z,3.70
2018-09-04T03:00:33.813Z,3.50
2018-09-04T03:03:02.149Z,3.98
2018-09-04T03:05:30.470Z,3.42
2018-09-04T03:07:58.810Z,3.80
2018-09-04T03:10:27.164Z,3.47
2018-09-04T03:12:55.456Z,4.00
2018-09-04T03:15:23.884Z,3.20
2018-09-04T03:17:52.211Z,3.52
2018-09-04T03:20:20.572Z,3.52
2018-09-04T03:22:49.130Z,3.10
2018-09-04T03:25:17.569Z,3.17
2018-09-04T03:27:45.899Z,3.20
2018-09-04T03:30:14.377Z,3.42
2018-09-04T03:32:42.706Z,3.72
2018-09-04T03:35:11.105Z,3.30
2018-09-04T03:37:39.405Z,3.72
2018-09-04T03:40:07.832Z,7.17
2018-09-04T03:42:36.232Z,4.10
2018-09-04T03:45:04.677Z,3.50
2018-09-04T03:47:32.970Z,5.25
2018-09-04T03:50:01.402Z,3.50
2018-09-04T03:52:29.762Z,3.20
2018-09-04T03:54:58.237Z,3.30
2018-09-04T03:57:26.665Z,3.47
2018-09-04T03:59:55.026Z,3.77
2018-09-04T04:02:23.444Z,3.60
2018-09-04T04:04:51.802Z,4.00
2018-09-04T04:07:20.115Z,3.75
2018-09-04T04:09:48.475Z,3.80
2018-09-04T04:12:16.873Z,4.42
2018-09-04T04:14:45.243Z,3.35
2018-09-04T04:17:13.549Z,3.70
2018-09-04T04:19:41.913Z,4.22
2018-09-04T04:22:10.242Z,3.90
2018-09-04T04:24:38.567Z,4.25
2018-09-04T04:27:07.001Z,3.52
2018-09-04T04:29:35.379Z,3.85
2018-09-04T04:32:04.106Z,4.35
2018-09-04T04:34:32.432Z,3.87
2018-09-04T04:37:00.715Z,4.78
2018-09-04T04:39:29.034Z,6.78
2018-09-04T04:41:57.699Z,3.92
2018-09-04T04:44:26.037Z,5.17
2018-09-04T04:46:54.373Z,5.40
2018-09-04T04:49:22.702Z,4.05
2018-09-04T04:51:51.181Z,4.15
2018-09-04T04:54:19.589Z,6.40
2018-09-04T04:56:47.926Z,6.17
2018-09-04T04:59:16.249Z,6.30
2018-09-04T05:01:44.573Z,5.00
2018-09-04T05:04:12.934Z,9.25
2018-09-04T05:06:41.372Z,6.75
2018-09-04T05:09:10.618Z,7.08
2018-09-04T05:11:39.306Z,7.45
2018-09-04T05:14:07.616Z,5.40
2018-09-04T05:16:36.056Z,7.62
2018-09-04T05:19:04.582Z,4.60
2018-09-04T05:21:32.906Z,6.17
2018-09-04T05:24:01.340Z,7.53
2018-09-04T05:26:29.699Z,6.17
2018-09-04T05:28:57.991Z,6.47
2018-09-04T05:31:26.865Z,5.87
2018-09-04T05:33:55.433Z,7.80
2018-09-04T05:36:23.790Z,7.25
2018-09-04T05:38:52.085Z,5.35
2018-09-04T05:41:20.430Z,7.12
2018-09-04T05:43:57.004Z,4.80
2018-09-04T05:46:58.109Z,5.80
2018-09-04T05:49:30.659Z,5.00
2018-09-04T05:51:59.095Z,5.30
2018-09-04T05:54:27.475Z,4.62
2018-09-04T05:56:55.819Z,4.42
2018-09-04T05:59:24.149Z,4.53
2018-09-04T06:01:52.590Z,8.93
2018-09-04T06:04:21.305Z,8.03
2018-09-04T06:06:49.798Z,5.60
2018-09-04T06:09:18.452Z,6.35
2018-09-04T06:11:46.773Z,7.10
2018-09-04T06:14:15.198Z,5.00
2018-09-04T06:16:43.544Z,5.12
2018-09-04T06:19:11.939Z,6.00
2018-09-04T06:21:40.351Z,5.03
2018-09-04T06:24:08.827Z,5.97
2018-09-04T06:26:37.234Z,4.87
2018-09-04T06:29:05.629Z,5.75
2018-09-04T06:31:33.996Z,4.65
2018-09-04T06:34:02.564Z,4.87
2018-09-04T06:36:30.857Z,4.97
2018-09-04T06:38:59.206Z,4.78
2018-09-04T06:41:27.751Z,4.50
2018-09-04T06:43:56.131Z,4.62
2018-09-04T06:46:24.649Z,4.37
2018-09-04T06:48:52.999Z,4.65
2018-09-04T06:51:21.312Z,4.40
2018-09-04T06:53:49.671Z,5.00
2018-09-04T06:56:17.991Z,4.70
2018-09-04T06:58:46.391Z,5.62
2018-09-04T07:01:14.885Z,4.83
2018-09-04T07:03:43.274Z,4.58
2018-09-04T07:06:11.775Z,5.17
2018-09-04T07:08:40.078Z,4.62
2018-09-04T07:11:08.443Z,5.33
2018-09-04T07:13:36.806Z,5.00
2018-09-04T07:16:05.249Z,5.20
2018-09-04T07:18:33.763Z,5.10
2018-09-04T07:21:02.143Z,4.97
2018-09-04T07:23:30.558Z,4.50
2018-09-04T07:25:58.908Z,5.00
2018-09-04T07:28:27.250Z,5.03
2018-09-04T07:30:55.545Z,4.80
2018-09-04T07:33:23.868Z,5.28
2018-09-04T07:35:52.200Z,4.92
2018-09-04T07:38:20.782Z,4.80
2018-09-04T07:40:49.195Z,5.35
2018-09-04T07:43:17.534Z,5.95
2018-09-04T07:45:45.963Z,6.00
2018-09-04T07:48:14.295Z,5.12
2018-09-04T07:50:42.638Z,5.33
2018-09-04T07:53:10.951Z,5.00
2018-09-04T07:55:39.265Z,4.87
2018-09-04T07:58:07.630Z,5.33
2018-09-04T08:00:36.036Z,5.20
2018-09-04T08:03:05.230Z,5.22
2018-09-04T08:05:33.844Z,6.00
2018-09-04T08:08:02.243Z,5.15
2018-09-04T08:10:34.202Z,5.25
2018-09-04T08:13:05.032Z,5.28
2018-09-04T08:15:33.380Z,5.35
2018-09-04T08:18:02.093Z,6.22
2018-09-04T08:20:30.628Z,6.08
2018-09-04T08:22:58.856Z,5.92
2018-09-04T08:25:27.307Z,6.03
2018-09-04T08:27:55.790Z,5.92
2018-09-04T08:30:24.610Z,5.60
2018-09-04T08:32:52.992Z,5.62
2018-09-04T08:35:21.453Z,5.75
2018-09-04T08:37:53.383Z,6.50
2018-09-04T08:40:22.024Z,7.30
2018-09-04T08:42:50.489Z,6.03
2018-09-04T08:45:18.919Z,6.22
2018-09-04T08:47:47.357Z,8.85
2018-09-04T08:50:15.608Z,6.95
2018-09-04T08:52:43.988Z,7.62
2018-09-04T08:55:12.501Z,6.60
2018-09-04T08:57:42.007Z,6.37
2018-09-04T09:00:10.356Z,6.50
2018-09-04T09:02:38.639Z,6.00
2018-09-04T09:05:07.013Z,7.33
2018-09-04T09:07:35.581Z,8.90
2018-09-04T09:10:04.084Z,7.67
2018-09-04T09:12:32.357Z,6.80
2018-09-04T09:15:00.881Z,7.20
2018-09-04T09:17:29.183Z,7.90
2018-09-04T09:19:57.488Z,6.97
2018-09-04T09:22:25.813Z,6.97
2018-09-04T09:24:54.143Z,7.60
2018-09-04T09:27:22.760Z,6.65
2018-09-04T09:29:51.273Z,9.10
2018-09-04T09:32:19.581Z,8.48
2018-09-04T09:34:47.986Z,7.78
2018-09-04T09:37:16.288Z,7.45
2018-09-04T09:39:44.664Z,7.15
2018-09-04T09:42:13.994Z,8.13
2018-09-04T09:44:43.929Z,8.78
2018-09-04T09:47:12.241Z,7.42
2018-09-04T09:49:40.684Z,8.38
2018-09-04T09:52:09.017Z,8.35
2018-09-04T09:54:37.371Z,8.20
2018-09-04T09:57:05.724Z,8.50
2018-09-04T09:59:34.175Z,8.15
2018-09-04T10:02:09.158Z,7.55
2018-09-04T10:04:37.700Z,7.40
2018-09-04T10:07:06.081Z,7.33
2018-09-04T10:09:34.439Z,8.03
2018-09-04T10:12:02.742Z,7.30
2018-09-04T10:14:31.098Z,7.62
2018-09-04T10:16:59.834Z,8.10
2018-09-04T10:19:28.172Z,7.30
2018-09-04T10:21:56.500Z,7.25
2018-09-04T10:24:24.843Z,6.75
2018-09-04T10:26:53.168Z,6.35
2018-09-04T10:29:21.518Z,6.67
2018-09-04T10:31:49.939Z,7.55
2018-09-04T10:34:18.313Z,6.60
2018-09-04T10:36:47.124Z,7.30
2018-09-04T10:39:20.868Z,6.85
2018-09-04T10:41:49.227Z,6.85
2018-09-04T10:44:17.592Z,6.22
2018-09-04T10:46:45.950Z,6.37
2018-09-04T10:49:14.335Z,6.78
2018-09-04T10:51:42.693Z,6.45
2018-09-04T10:54:11.131Z,6.65
2018-09-04T10:56:39.625Z,6.40
2018-09-04T10:59:08.090Z,6.00
2018-09-04T11:01:36.909Z,6.72
2018-09-04T11:04:05.277Z,6.08
2018-09-04T11:06:33.609Z,5.45
2018-09-04T11:09:02.036Z,6.75
2018-09-04T11:11:30.390Z,6.62
2018-09-04T11:13:58.731Z,5.60
2018-09-04T11:16:27.075Z,6.70
2018-09-04T11:18:55.427Z,6.65
2018-09-04T11:21:23.907Z,5.85
2018-09-04T11:23:52.308Z,6.15
2018-09-04T11:26:21.064Z,6.03
2018-09-04T11:28:52.713Z,5.65
2018-09-04T11:31:21.119Z,5.42
2018-09-04T11:33:49.482Z,5.97
2018-09-04T11:36:17.851Z,6.30
2018-09-04T11:38:46.161Z,6.17
2018-09-04T11:41:14.483Z,6.00
2018-09-04T11:43:42.863Z,5.78
2018-09-04T11:46:11.193Z,5.55
2018-09-04T11:48:39.986Z,5.70
2018-09-04T11:51:10.878Z,5.60
2018-09-04T11:53:39.295Z,5.40
2018-09-04T11:56:07.629Z,6.37
2018-09-04T11:58:36.048Z,5.50
2018-09-04T12:01:08.733Z,6.45
2018-09-04T12:03:37.117Z,6.47
2018-09-04T12:06:05.929Z,6.75
2018-09-04T12:08:35.005Z,5.97
2018-09-04T12:11:03.536Z,5.33
2018-09-04T12:13:32.403Z,6.33
2018-09-04T12:16:01.100Z,6.03
2018-09-04T12:18:30.004Z,5.45
2018-09-04T12:21:02.772Z,5.50
2018-09-04T12:23:31.214Z,5.72
2018-09-04T12:26:00.852Z,5.60
2018-09-04T12:28:29.534Z,5.87
2018-09-04T12:30:58.609Z,5.30
2018-09-04T12:33:27.013Z,5.40
2018-09-04T12:35:55.353Z,5.22
2018-09-04T12:38:27.510Z,5.50
2018-09-04T12:40:55.848Z,5.45
2018-09-04T12:43:24.278Z,5.47
2018-09-04T12:45:56.465Z,5.55
2018-09-04T12:48:29.120Z,5.00
2018-09-04T12:50:58.539Z,5.20
2018-09-04T12:53:27.748Z,5.60
2018-09-04T12:55:56.205Z,5.28
2018-09-04T12:58:24.583Z,5.03
2018-09-04T13:00:54.024Z,5.35
2018-09-04T13:03:23.656Z,4.95
2018-09-04T13:05:52.212Z,5.70
2018-09-04T13:08:22.036Z,5.00
2018-09-04T13:10:50.490Z,4.85
2018-09-04T13:13:18.996Z,5.40
2018-09-04T13:15:51.126Z,5.10
2018-09-04T13:18:19.596Z,5.05
2018-09-04T13:20:47.903Z,4.60
2018-09-04T13:23:16.431Z,5.70
2018-09-04T13:25:45.376Z,5.67
2018-09-04T13:28:13.944Z,5.70
2018-09-04T13:30:42.323Z,5.50
2018-09-04T13:33:10.718Z,5.95
2018-09-04T13:35:39.795Z,5.05
2018-09-04T13:38:08.204Z,5.22
2018-09-04T13:40:36.756Z,4.87
2018-09-04T13:43:05.141Z,5.53
2018-09-04T13:45:33.688Z,5.42
2018-09-04T13:48:02.227Z,4.92
2018-09-04T13:50:30.606Z,5.67
2018-09-04T13:52:59.137Z,5.25
2018-09-04T13:55:27.537Z,5.47
2018-09-04T13:57:56.003Z,5.37
2018-09-04T14:00:25.153Z,5.25
2018-09-04T14:02:53.532Z,5.20
2018-09-04T14:05:21.998Z,5.17
2018-09-04T14:07:50.356Z,5.00
2018-09-04T14:10:18.716Z,5.28
2018-09-04T14:12:47.093Z,5.67
2018-09-04T14:15:15.435Z,5.70
2018-09-04T14:17:43.799Z,5.95
2018-09-04T14:20:12.182Z,6.25
2018-09-04T14:22:40.565Z,5.65
2018-09-04T14:25:09.120Z,5.87
2018-09-04T14:27:37.487Z,5.95
2018-09-04T14:30:18.415Z,5.90
2018-09-04T14:32:34.812Z,8.53
2018-09-04T14:35:03.163Z,5.58
2018-09-04T14:37:31.502Z,5.28
2018-09-04T14:39:59.848Z,5.92
2018-09-04T14:42:28.190Z,5.60
2018-09-04T14:44:56.604Z,5.97
2018-09-04T14:47:24.855Z,6.10
2018-09-04T14:49:53.282Z,5.60
2018-09-04T14:52:21.655Z,5.53
2018-09-04T14:54:50.048Z,5.70
2018-09-04T14:57:18.397Z,6.12
2018-09-04T14:59:46.920Z,6.12
2018-09-04T15:02:15.350Z,6.10
2018-09-04T15:04:43.751Z,5.87
2018-09-04T15:07:12.145Z,5.45
2018-09-04T15:09:40.529Z,5.22
2018-09-04T15:12:08.920Z,6.30
2018-09-04T15:14:38.726Z,6.05
2018-09-04T15:17:07.318Z,5.80
2018-09-04T15:19:35.780Z,5.78
2018-09-04T15:22:04.159Z,5.15
2018-09-04T15:24:32.571Z,5.72
2018-09-04T15:27:00.957Z,5.30
2018-09-04T15:29:29.479Z,5.60
2018-09-04T15:31:57.808Z,5.33
2018-09-04T15:34:26.160Z,5.72
2018-09-04T15:36:54.709Z,5.55
2018-09-04T15:39:23.184Z,5.70
2018-09-04T15:41:51.600Z,6.10
2018-09-04T15:44:20.333Z,5.10
2018-09-04T15:46:48.732Z,5.05
2018-09-04T15:49:22.750Z,4.70
2018-09-04T15:51:51.496Z,5.70
2018-09-04T15:54:20.054Z,5.03
2018-09-04T15:56:48.587Z,5.40
2018-09-04T15:59:17.112Z,5.25
2018-09-04T16:01:45.419Z,5.08
2018-09-04T16:04:13.901Z,5.72
2018-09-04T16:06:42.318Z,5.03
2018-09-04T16:09:10.791Z,4.85
2018-09-04T16:11:39.322Z,5.40
2018-09-04T16:14:07.748Z,4.62
2018-09-04T16:16:36.380Z,4.95
2018-09-04T16:19:04.782Z,4.97
2018-09-04T16:21:33.430Z,4.50
2018-09-04T16:24:02.635Z,5.15
2018-09-04T16:26:32.985Z,4.95
2018-09-04T16:29:32.772Z,5.22
2018-09-04T16:32:01.216Z,5.10
2018-09-04T16:34:29.734Z,4.87
2018-09-04T16:36:58.200Z,5.30
2018-09-04T16:39:26.533Z,5.50
2018-09-04T16:41:54.908Z,5.05
2018-09-04T16:44:23.292Z,5.25
2018-09-04T16:46:51.638Z,5.00
2018-09-04T16:49:24.191Z,4.90
2018-09-04T16:51:52.668Z,5.03
2018-09-04T16:54:22.247Z,4.72
2018-09-04T16:56:50.990Z,5.12
2018-09-04T16:59:19.505Z,5.03
2018-09-04T17:01:47.879Z,5.47
2018-09-04T17:04:16.807Z,5.50
2018-09-04T17:06:45.406Z,5.58
2018-09-04T17:09:13.775Z,5.85
2018-09-04T17:11:42.256Z,5.28
2018-09-04T17:14:12.307Z,5.20
2018-09-04T17:16:40.812Z,5.55
2018-09-04T17:19:09.341Z,5.55
2018-09-04T17:21:41.411Z,5.65
2018-09-04T17:24:09.958Z,5.20
2018-09-04T17:26:38.638Z,4.78
2018-09-04T17:29:07.068Z,6.17
2018-09-04T17:31:35.375Z,5.75
2018-09-04T17:34:03.726Z,5.67
2018-09-04T17:36:32.282Z,5.58
2018-09-04T17:39:00.785Z,5.25
2018-09-04T17:41:29.822Z,6.15
2018-09-04T17:43:58.220Z,6.05
2018-09-04T17:46:26.682Z,5.70
2018-09-04T17:48:55.205Z,5.87
2018-09-04T17:51:23.598Z,5.60
2018-09-04T17:53:51.931Z,6.08
2018-09-04T17:56:20.284Z,5.25
2018-09-04T17:58:48.952Z,5.72
2018-09-04T18:01:17.280Z,5.83
2018-09-04T18:03:45.655Z,5.80
2018-09-04T18:06:14.101Z,5.33
2018-09-04T18:08:42.522Z,5.95
2018-09-04T18:11:11.010Z,8.10
2018-09-04T18:13:39.440Z,6.03
2018-09-04T18:16:08.057Z,5.97
2018-09-04T18:18:36.563Z,6.03
2018-09-04T18:21:06.630Z,6.45
2018-09-04T18:23:34.985Z,6.60
2018-09-04T18:26:03.363Z,6.47
2018-09-04T18:28:31.785Z,5.95
2018-09-04T18:31:00.437Z,5.85
2018-09-04T18:33:28.929Z,5.78
2018-09-04T18:35:57.376Z,5.92
2018-09-04T18:38:25.851Z,6.10
2018-09-04T18:40:55.230Z,7.22
2018-09-04T18:43:23.642Z,6.40
2018-09-04T18:45:54.744Z,7.40
2018-09-04T18:48:24.412Z,5.65
2018-09-04T18:50:52.925Z,5.97
2018-09-04T18:53:21.666Z,5.85
2018-09-04T18:55:50.057Z,5.72
2018-09-04T18:58:18.414Z,6.17
2018-09-04T19:00:46.947Z,6.62
2018-09-04T19:03:15.378Z,6.05
2018-09-04T19:05:44.577Z,5.90
2018-09-04T19:08:13.133Z,6.12
2018-09-04T19:10:41.602Z,7.55
2018-09-04T19:13:09.993Z,6.97
2018-09-04T19:15:38.290Z,6.50
2018-09-04T19:18:07.475Z,10.40
2018-09-04T19:20:36.022Z,7.03
2018-09-04T19:23:04.445Z,6.33
2018-09-04T19:25:32.832Z,6.60
2018-09-04T19:28:01.415Z,5.90
2018-09-04T19:30:30.522Z,9.33
2018-09-04T19:32:59.543Z,9.50
2018-09-04T19:35:29.084Z,7.30
2018-09-04T19:37:58.230Z,6.40
2018-09-04T19:40:26.756Z,7.92
2018-09-04T19:42:55.240Z,6.47
2018-09-04T19:45:23.710Z,6.35
2018-09-04T19:47:52.096Z,9.30
2018-09-04T19:50:20.786Z,7.20
2018-09-04T19:52:50.202Z,6.90
2018-09-04T19:55:19.065Z,6.55
2018-09-04T19:57:47.574Z,5.92
2018-09-04T20:00:15.996Z,5.60
2018-09-04T20:02:44.396Z,8.10
2018-09-04T20:05:12.830Z,7.42
2018-09-04T20:07:41.209Z,5.83
2018-09-04T20:10:09.757Z,5.67
2018-09-04T20:12:38.410Z,5.17
2018-09-04T20:15:07.116Z,5.60
2018-09-04T20:17:36.664Z,6.72
2018-09-04T20:20:06.598Z,4.97
2018-09-04T20:22:35.836Z,6.50
2018-09-04T20:25:04.261Z,6.33
2018-09-04T20:27:32.600Z,5.50
2018-09-04T20:30:00.957Z,5.50
2018-09-04T20:32:29.487Z,5.90
2018-09-04T20:34:57.921Z,5.50
2018-09-04T20:37:26.267Z,5.75
2018-09-04T20:39:54.862Z,5.15
2018-09-04T20:42:23.344Z,4.87
2018-09-04T20:44:51.713Z,5.35
2018-09-04T20:47:20.214Z,5.10
2018-09-04T20:49:48.625Z,5.83
2018-09-04T20:52:17.158Z,5.25
2018-09-04T20:54:45.930Z,5.58
2018-09-04T20:57:30.926Z,5.53
2018-09-04T21:00:12.810Z,5.30
2018-09-04T21:02:52.802Z,5.47
2018-09-04T21:05:32.507Z,6.20
2018-09-04T21:09:13.501Z,5.30
2018-09-04T21:11:45.299Z,4.80
2018-09-04T21:14:14.338Z,5.45
2018-09-04T21:16:42.783Z,5.08
2018-09-04T21:19:11.192Z,5.47
2018-09-04T21:21:39.528Z,5.78
2018-09-04T21:24:07.942Z,5.33
2018-09-04T21:26:36.454Z,5.35
2018-09-04T21:29:05.213Z,5.17
2018-09-04T21:31:33.782Z,5.30
2018-09-04T21:34:02.083Z,5.20
2018-09-04T21:36:30.592Z,4.75
2018-09-04T21:38:59.002Z,5.15
2018-09-04T21:41:27.358Z,5.12
2018-09-04T21:43:55.800Z,5.85
2018-09-04T21:46:24.622Z,4.30
2018-09-04T21:48:56.348Z,5.72
2018-09-04T21:51:24.920Z,5.55
2018-09-04T21:53:53.714Z,4.70
2018-09-04T21:56:22.806Z,4.67
2018-09-04T21:58:52.197Z,9.88
2018-09-04T22:01:21.606Z,4.90
2018-09-04T22:03:50.635Z,5.12
2018-09-04T22:06:19.137Z,5.00
2018-09-04T22:08:47.569Z,4.65
2018-09-04T22:11:15.906Z,5.20
2018-09-04T22:13:44.524Z,5.70
2018-09-04T22:16:13.475Z,4.67
2018-09-04T22:18:42.150Z,5.40
2018-09-04T22:21:10.827Z,4.87
2018-09-04T22:23:39.284Z,5.25
2018-09-04T22:26:08.042Z,5.22
2018-09-04T22:28:37.139Z,5.33
2018-09-04T22:31:05.798Z,5.47
2018-09-04T22:33:34.155Z,4.97
2018-09-04T22:36:03.050Z,5.30
2018-09-04T22:38:32.630Z,5.40
2018-09-04T22:41:02.481Z,4.80
2018-09-04T22:43:31.655Z,5.35
2018-09-04T22:46:00.503Z,4.75
2018-09-04T22:48:29.543Z,5.10
2018-09-04T22:51:04.298Z,5.03
2018-09-04T22:53:33.861Z,5.00
2018-09-04T22:56:05.504Z,4.70
2018-09-04T22:58:34.189Z,5.12
2018-09-04T23:01:04.943Z,4.78
2018-09-04T23:03:33.855Z,5.15
2018-09-04T23:06:03.111Z,4.67
2018-09-04T23:08:32.757Z,5.28
2018-09-04T23:11:03.703Z,5.03
2018-09-04T23:13:33.713Z,4.60
2018-09-04T23:16:03.511Z,5.12
2018-09-04T23:18:34.218Z,6.55
2018-09-04T23:21:03.433Z,4.87
2018-09-04T23:23:32.251Z,4.90
2018-09-04T23:26:00.725Z,5.12
2018-09-04T23:28:29.089Z,4.90
2018-09-04T23:30:57.422Z,5.40
2018-09-04T23:33:26.989Z,5.28
2018-09-04T23:35:57.127Z,4.95
2018-09-04T23:38:27.571Z,5.10
2018-09-04T23:40:56.852Z,5.30
2018-09-04T23:43:26.111Z,5.25
2018-09-04T23:45:54.643Z,4.97
2018-09-04T23:48:23.092Z,4.92
2018-09-04T23:50:51.416Z,6.80
2018-09-04T23:53:19.772Z,4.80
2018-09-04T23:55:48.089Z,5.08
2018-09-04T23:58:16.698Z,5.00
